Map

Track Data

SID SEASON NUMBER BASIN SUBBASIN NAME ISO_TIME NATURE LAT LON WMO_WIND WMO_PRES WMO_AGENCY TRACK_TYPE DIST2LAND LANDFALL IFLAG USA_AGENCY USA_ATCF_ID USA_LAT USA_LON USA_RECORD USA_STATUS USA_WIND USA_PRES USA_SSHS USA_R34_NE USA_R34_SE USA_R34_SW USA_R34_NW USA_R50_NE USA_R50_SE USA_R50_SW USA_R50_NW USA_R64_NE USA_R64_SE USA_R64_SW USA_R64_NW USA_POCI USA_ROCI USA_RMW USA_EYE TOKYO_LAT TOKYO_LON TOKYO_GRADE TOKYO_WIND TOKYO_PRES TOKYO_R50_DIR TOKYO_R50_LONG TOKYO_R50_SHORT TOKYO_R30_DIR TOKYO_R30_LONG TOKYO_R30_SHORT TOKYO_LAND CMA_LAT CMA_LON CMA_CAT CMA_WIND CMA_PRES HKO_LAT HKO_LON HKO_CAT HKO_WIND HKO_PRES NEWDELHI_LAT NEWDELHI_LON NEWDELHI_GRADE NEWDELHI_WIND NEWDELHI_PRES NEWDELHI_CI NEWDELHI_DP NEWDELHI_POCI REUNION_LAT REUNION_LON REUNION_TYPE REUNION_WIND REUNION_PRES REUNION_TNUM REUNION_CI REUNION_RMW REUNION_R34_NE REUNION_R34_SE REUNION_R34_SW REUNION_R34_NW REUNION_R50_NE REUNION_R50_SE REUNION_R50_SW REUNION_R50_NW REUNION_R64_NE REUNION_R64_SE REUNION_R64_SW REUNION_R64_NW BOM_LAT BOM_LON BOM_TYPE BOM_WIND BOM_PRES BOM_TNUM BOM_CI BOM_RMW BOM_R34_NE BOM_R34_SE BOM_R34_SW BOM_R34_NW BOM_R50_NE BOM_R50_SE BOM_R50_SW BOM_R50_NW BOM_R64_NE BOM_R64_SE BOM_R64_SW BOM_R64_NW BOM_ROCI BOM_POCI BOM_EYE BOM_POS_METHOD BOM_PRES_METHOD NADI_LAT NADI_LON NADI_CAT NADI_WIND NADI_PRES WELLINGTON_LAT WELLINGTON_LON WELLINGTON_WIND WELLINGTON_PRES DS824_LAT DS824_LON DS824_STAGE DS824_WIND DS824_PRES TD9636_LAT TD9636_LON TD9636_STAGE TD9636_WIND TD9636_PRES TD9635_LAT TD9635_LON TD9635_WIND TD9635_PRES TD9635_ROCI NEUMANN_LAT NEUMANN_LON NEUMANN_CLASS NEUMANN_WIND NEUMANN_PRES MLC_LAT MLC_LON MLC_CLASS MLC_WIND MLC_PRES USA_GUST BOM_GUST BOM_GUST_PER REUNION_GUST REUNION_GUST_PER USA_SEAHGT USA_SEARAD_NE USA_SEARAD_SE USA_SEARAD_SW USA_SEARAD_NW STORM_SPEED STORM_DIR
1890182N20088 1890 18 NI BB NOT_NAMED 1890-07-01 00:00:00 TS 19.6000 87.8000 main 139 100 _________O____ -1 19.6000 87.8000 TC 30 8 296
1890182N20088 1890 18 NI BB NOT_NAMED 1890-07-01 03:00:00 TS 19.7669 87.4336 main 92 39 _________PO___ -1 19.8503 87.2503 TC 30 19.6000 87.8000 1 9 296
1890182N20088 1890 18 NI BB NOT_NAMED 1890-07-01 06:00:00 TS 20.0047 86.9104 main 39 0 _________OP___ -1 20.1000 86.7000 TC 30 19.8618 87.2261 1 11 296
1890182N20088 1890 18 NI BB NOT_NAMED 1890-07-01 09:00:00 TS 20.2505 86.3688 main 0 0 _________PP___ -1 20.3498 86.1498 TC 30 20.1182 86.6608 1 11 296
1890182N20088 1890 18 NI BB NOT_NAMED 1890-07-01 12:00:00 TS 20.4827 85.8576 main 0 0 _________OP___ -1 20.6000 85.6000 TC 30 20.3654 86.1152 1 11 296
1890182N20088 1890 18 NI BB NOT_NAMED 1890-07-01 15:00:00 TS 20.7249 85.3286 main 0 0 _________PO___ -1 20.8498 85.0573 TC 30 20.6000 85.6000 1 11 296
1890182N20088 1890 18 NI BB NOT_NAMED 1890-07-01 18:00:00 TS 20.9613 84.8073 main 0 0 _________OP___ -1 21.1000 84.5000 TC 30 20.8227 85.1145 1 11 296
1890182N20088 1890 18 NI BB NOT_NAMED 1890-07-01 21:00:00 TS 21.1883 84.2958 main 0 0 _________PP___ -1 21.3263 83.9814 TC 30 21.0503 84.6103 1 12 295
1890182N20088 1890 18 NI BB NOT_NAMED 1890-07-02 00:00:00 TS 21.4514 83.6631 main 0 0 _________OP___ -1 21.6000 83.3000 TC 30 21.3029 84.0261 1 15 293
1890182N20088 1890 18 NI BB NOT_NAMED 1890-07-02 03:00:00 TS 21.7890 82.7876 main 0 0 _________PO___ -1 21.9780 82.2752 TC 30 21.6000 83.3000 1 19 291
1890182N20088 1890 18 NI BB NOT_NAMED 1890-07-02 06:00:00 TS 22.1637 81.7131 main 0 0 _________OP___ -1 22.4000 81.1000 TC 30 21.9274 82.3262 1 22 290
1890182N20088 1890 18 NI BB NOT_NAMED 1890-07-02 09:00:00 TS 22.5456 80.6015 main 0 0 _________PP___ -1 22.7919 79.9918 TC 30 22.2993 81.2113 1 22 291
1890182N20088 1890 18 NI BB NOT_NAMED 1890-07-02 12:00:00 TS 22.9605 79.4703 main 0 0 _________OP___ -1 23.2000 78.9000 TC 30 22.7210 80.0407 1 22 292
1890182N20088 1890 18 NI BB NOT_NAMED 1890-07-02 15:00:00 TS 23.3986 78.3556 main 0 0 _________PO___ -1 23.5972 77.8113 TC 30 23.2000 78.9000 1 22 296
1890182N20088 1890 18 NI AS NOT_NAMED 1890-07-02 18:00:00 TS 23.9358 77.2928 main 0 0 _________OP___ -1 24.1000 76.8000 TC 30 23.7717 77.7856 1 23 303
1890182N20088 1890 18 NI AS NOT_NAMED 1890-07-02 21:00:00 TS 24.6260 76.2769 main 0 0 _________PP___ -1 24.8576 75.8244 TC 30 24.3943 76.7295 1 22 309
1890182N20088 1890 18 NI AS NOT_NAMED 1890-07-03 00:00:00 TS 25.3097 75.4539 main 0 0 _________OP___ -1 25.6000 75.1000 TC 30 25.0194 75.8078 1 17 315
1890182N20088 1890 18 NI AS NOT_NAMED 1890-07-03 03:00:00 TS 25.8220 74.9466 main 0 0 _________PO___ -1 26.0441 74.7931 TC 30 25.6000 75.1000 1 12 323
1890182N20088 1890 18 NI AS NOT_NAMED 1890-07-03 06:00:00 TS 26.2316 74.6884 main 0 0 _________OP___ -1 26.4000 74.7000 TC 30 26.0632 74.6768 1 9 335
1890182N20088 1890 18 NI AS NOT_NAMED 1890-07-03 09:00:00 TS 26.6590 74.5044 main 0 0 _________PP___ -1 26.8350 74.5349 TC 30 26.4830 74.4740 1 9 344
1890182N20088 1890 18 NI AS NOT_NAMED 1890-07-03 12:00:00 TS 27.0932 74.4047 main 0 0 _________OP___ -1 27.3000 74.4000 TC 30 26.8865 74.4095 1 9 351
1890182N20088 1890 18 NI AS NOT_NAMED 1890-07-03 15:00:00 TS 27.5500 74.3388 main 0 0 _________PO___ -1 27.8000 74.2775 TC 30 27.3000 74.4000 1 10 351
1890182N20088 1890 18 NI AS NOT_NAMED 1890-07-03 18:00:00 TS 28.0404 74.2448 main 0 0 _________OP___ -1 28.3000 74.2000 TC 30 27.7808 74.2896 1 10 353
1890182N20088 1890 18 NI AS NOT_NAMED 1890-07-03 21:00:00 TS 28.5224 74.1938 main 0 0 _________PP___ -1 28.7725 74.1700 TC 30 28.2723 74.2176 1 9 357
1890182N20088 1890 18 NI AS NOT_NAMED 1890-07-04 00:00:00 TS 28.9763 74.1934 main 0 0 _________OP___ -1 29.2000 74.2000 TC 30 28.7527 74.1867 1 9 3
1890182N20088 1890 18 NI AS NOT_NAMED 1890-07-04 03:00:00 TS 29.3825 74.2425 main 0 0 _________PO___ -1 29.5650 74.2849 TC 30 29.2000 74.2000 1 8 9
1890182N20088 1890 18 NI AS NOT_NAMED 1890-07-04 06:00:00 TS 29.7450 74.3262 main 0 0 _________OP___ -1 29.9000 74.4000 TC 30 29.5900 74.2523 1 7 13
1890182N20088 1890 18 NI AS NOT_NAMED 1890-07-04 09:00:00 TS 30.0975 74.4235 main 0 0 _________PP___ -1 30.2500 74.5001 TC 30 29.9450 74.3469 1 7 14
1890182N20088 1890 18 NI AS NOT_NAMED 1890-07-04 12:00:00 TS 30.4387 74.5341 main 0 0 _________OP___ -1 30.6000 74.6000 TC 30 30.2775 74.4682 1 7 16
1890182N20088 1890 18 NI AS NOT_NAMED 1890-07-04 15:00:00 TS 30.7787 74.6463 main 0 0 _________PO___ -1 30.9575 74.6926 TC 30 30.6000 74.6000 1 7 17
1890182N20088 1890 18 NI AS NOT_NAMED 1890-07-04 18:00:00 TS 31.0845 74.7596 main 0 0 _________OP___ -1 31.3000 74.8000 TC 30 30.9228 74.7293 1 7 19
1890182N20088 1890 18 NI AS NOT_NAMED 1890-07-04 21:00:00 TS 31.3926 74.8887 main 0 0 _________PP___ -1 31.6101 74.9398 TC 30 31.2476 74.8547 1 6 20
1890182N20088 1890 18 NI AS NOT_NAMED 1890-07-05 00:00:00 TS 31.6823 75.0185 main 0 0 _________OP___ -1 31.9000 75.1000 TC 30 31.5735 74.9777 1 5 19
1890182N20088 1890 18 NI AS NOT_NAMED 1890-07-05 03:00:00 NR 31.9000 75.1000 main 0 __________O___ -1 TC 31.9000 75.1000 1 5 17

About IBTrACS Database

This database is a web-friendly format of International Best Track Archive for Climate Stewardship (IBTrACS), a global best track data archive curated by NOAA dating back to 1842.

Updated: 2021-12-03